Terminal Aerodrome Forecast
Issued by NWS North Platte, NE

Home | Current Version | Previous Version | Graphics & Text | Print | Product List | Glossary On
Versions: 1 2 3 4 5 6 7 8 9 10 11 12 13 14 15 16 17 18 19 20 21 22 23 24 25
000
FTUS43 KLBF 271743 RRA
TAFVTN
TAF
KVTN 271743Z 2718/2818 35017G25KT 2SM -SN OVC012
     FM272000 35013KT 6SM -RASN OVC012
     FM280100 34012KT P6SM VCSH OVC012
     FM281700 34009KT P6SM OVC015=

USA.gov is the U.S. government's official web portal to all federal, state and local government web resources and services.